sensor_id;sensor_type;location;lat;lon;timestamp;P1;durP1;ratioP1;P2;durP2;ratioP2
22176;SDS011;11254;50.098;8.726;2023-11-21T00:01:26;7.80;;;2.05;;
22176;SDS011;11254;50.098;8.726;2023-11-21T00:03:56;7.95;;;2.65;;
22176;SDS011;11254;50.098;8.726;2023-11-21T00:06:26;6.97;;;1.95;;
22176;SDS011;11254;50.098;8.726;2023-11-21T00:08:56;5.60;;;2.33;;
22176;SDS011;11254;50.098;8.726;2023-11-21T00:11:31;6.55;;;2.10;;
22176;SDS011;11254;50.098;8.726;2023-11-21T00:14:01;4.00;;;1.90;;
22176;SDS011;11254;50.098;8.726;2023-11-21T00:16:30;8.98;;;2.47;;
22176;SDS011;11254;50.098;8.726;2023-11-21T00:19:00;5.97;;;2.45;;
22176;SDS011;11254;50.098;8.726;2023-11-21T00:22:43;8.50;;;2.15;;
22176;SDS011;11254;50.098;8.726;2023-11-21T00:25:12;6.25;;;1.90;;
22176;SDS011;11254;50.098;8.726;2023-11-21T00:27:42;9.85;;;2.40;;
22176;SDS011;11254;50.098;8.726;2023-11-21T00:30:13;6.85;;;2.35;;
22176;SDS011;11254;50.098;8.726;2023-11-21T00:32:41;4.68;;;1.83;;
22176;SDS011;11254;50.098;8.726;2023-11-21T00:35:10;6.00;;;1.90;;
22176;SDS011;11254;50.098;8.726;2023-11-21T00:37:39;6.45;;;2.22;;
22176;SDS011;11254;50.098;8.726;2023-11-21T00:40:09;4.72;;;1.90;;
22176;SDS011;11254;50.098;8.726;2023-11-21T00:42:38;5.82;;;2.00;;
22176;SDS011;11254;50.098;8.726;2023-11-21T00:45:07;6.63;;;2.00;;
22176;SDS011;11254;50.098;8.726;2023-11-21T00:47:37;7.22;;;2.00;;
22176;SDS011;11254;50.098;8.726;2023-11-21T00:50:06;5.53;;;2.00;;
22176;SDS011;11254;50.098;8.726;2023-11-21T00:52:35;5.57;;;1.80;;
22176;SDS011;11254;50.098;8.726;2023-11-21T00:55:04;5.47;;;1.67;;
22176;SDS011;11254;50.098;8.726;2023-11-21T00:57:34;8.07;;;2.00;;
22176;SDS011;11254;50.098;8.726;2023-11-21T01:00:04;7.78;;;1.85;;
22176;SDS011;11254;50.098;8.726;2023-11-21T01:02:35;7.63;;;1.90;;
22176;SDS011;11254;50.098;8.726;2023-11-21T01:05:05;5.70;;;1.63;;
22176;SDS011;11254;50.098;8.726;2023-11-21T01:07:35;6.07;;;1.50;;
22176;SDS011;11254;50.098;8.726;2023-11-21T01:10:04;4.95;;;1.80;;
22176;SDS011;11254;50.098;8.726;2023-11-21T01:12:34;9.43;;;2.38;;
22176;SDS011;11254;50.098;8.726;2023-11-21T01:15:03;6.72;;;2.20;;
22176;SDS011;11254;50.098;8.726;2023-11-21T01:17:33;5.70;;;1.70;;
22176;SDS011;11254;50.098;8.726;2023-11-21T01:20:04;7.22;;;1.92;;
22176;SDS011;11254;50.098;8.726;2023-11-21T01:22:39;5.43;;;1.80;;
22176;SDS011;11254;50.098;8.726;2023-11-21T01:25:10;5.30;;;1.80;;
22176;SDS011;11254;50.098;8.726;2023-11-21T01:27:42;7.03;;;2.30;;
22176;SDS011;11254;50.098;8.726;2023-11-21T01:30:11;6.15;;;1.77;;
22176;SDS011;11254;50.098;8.726;2023-11-21T01:32:41;5.93;;;2.00;;
22176;SDS011;11254;50.098;8.726;2023-11-21T01:35:11;5.90;;;2.13;;
22176;SDS011;11254;50.098;8.726;2023-11-21T01:37:40;7.80;;;2.20;;
22176;SDS011;11254;50.098;8.726;2023-11-21T01:40:09;5.72;;;1.85;;
22176;SDS011;11254;50.098;8.726;2023-11-21T01:42:41;7.10;;;2.72;;
22176;SDS011;11254;50.098;8.726;2023-11-21T01:45:11;6.57;;;2.38;;
22176;SDS011;11254;50.098;8.726;2023-11-21T01:47:41;5.82;;;2.50;;
22176;SDS011;11254;50.098;8.726;2023-11-21T01:50:12;8.30;;;2.40;;
22176;SDS011;11254;50.098;8.726;2023-11-21T01:52:42;8.18;;;2.65;;
22176;SDS011;11254;50.098;8.726;2023-11-21T01:55:12;6.70;;;3.08;;
22176;SDS011;11254;50.098;8.726;2023-11-21T01:57:53;6.05;;;2.30;;
22176;SDS011;11254;50.098;8.726;2023-11-21T02:00:22;6.20;;;2.78;;
22176;SDS011;11254;50.098;8.726;2023-11-21T02:02:51;8.43;;;2.63;;
22176;SDS011;11254;50.098;8.726;2023-11-21T02:05:22;6.22;;;2.75;;
22176;SDS011;11254;50.098;8.726;2023-11-21T02:07:50;10.05;;;2.80;;
22176;SDS011;11254;50.098;8.726;2023-11-21T02:10:19;9.93;;;3.17;;
22176;SDS011;11254;50.098;8.726;2023-11-21T02:12:51;8.80;;;2.92;;
22176;SDS011;11254;50.098;8.726;2023-11-21T02:15:20;6.93;;;3.13;;
22176;SDS011;11254;50.098;8.726;2023-11-21T02:17:50;8.27;;;3.60;;
22176;SDS011;11254;50.098;8.726;2023-11-21T02:20:22;9.75;;;3.35;;
22176;SDS011;11254;50.098;8.726;2023-11-21T02:22:54;7.70;;;2.72;;
22176;SDS011;11254;50.098;8.726;2023-11-21T02:25:26;7.10;;;3.00;;
22176;SDS011;11254;50.098;8.726;2023-11-21T02:27:55;7.10;;;3.13;;
22176;SDS011;11254;50.098;8.726;2023-11-21T02:30:24;5.80;;;3.28;;
22176;SDS011;11254;50.098;8.726;2023-11-21T02:32:54;6.47;;;2.80;;
22176;SDS011;11254;50.098;8.726;2023-11-21T02:35:25;7.30;;;3.15;;
22176;SDS011;11254;50.098;8.726;2023-11-21T02:37:55;8.15;;;3.20;;
22176;SDS011;11254;50.098;8.726;2023-11-21T02:40:24;6.97;;;3.03;;
22176;SDS011;11254;50.098;8.726;2023-11-21T02:42:54;6.82;;;3.45;;
22176;SDS011;11254;50.098;8.726;2023-11-21T02:45:26;7.05;;;3.38;;
22176;SDS011;11254;50.098;8.726;2023-11-21T02:47:54;6.00;;;3.15;;
22176;SDS011;11254;50.098;8.726;2023-11-21T02:50:25;8.23;;;3.10;;
22176;SDS011;11254;50.098;8.726;2023-11-21T02:52:55;9.07;;;3.47;;
22176;SDS011;11254;50.098;8.726;2023-11-21T02:55:27;5.63;;;2.83;;
22176;SDS011;11254;50.098;8.726;2023-11-21T02:57:56;6.13;;;3.08;;
22176;SDS011;11254;50.098;8.726;2023-11-21T03:00:24;5.07;;;2.42;;
22176;SDS011;11254;50.098;8.726;2023-11-21T03:02:54;4.07;;;2.35;;
22176;SDS011;11254;50.098;8.726;2023-11-21T03:05:25;4.57;;;2.10;;
22176;SDS011;11254;50.098;8.726;2023-11-21T03:07:53;6.13;;;2.30;;
22176;SDS011;11254;50.098;8.726;2023-11-21T03:10:23;4.88;;;2.17;;
22176;SDS011;11254;50.098;8.726;2023-11-21T03:12:52;4.38;;;2.10;;
22176;SDS011;11254;50.098;8.726;2023-11-21T03:15:20;5.20;;;2.15;;
22176;SDS011;11254;50.098;8.726;2023-11-21T03:17:49;5.47;;;2.33;;
22176;SDS011;11254;50.098;8.726;2023-11-21T03:20:18;3.80;;;2.08;;
22176;SDS011;11254;50.098;8.726;2023-11-21T03:22:47;4.88;;;2.20;;
22176;SDS011;11254;50.098;8.726;2023-11-21T03:25:16;5.13;;;2.00;;
22176;SDS011;11254;50.098;8.726;2023-11-21T03:27:46;4.15;;;1.83;;
22176;SDS011;11254;50.098;8.726;2023-11-21T03:30:14;4.53;;;2.03;;
22176;SDS011;11254;50.098;8.726;2023-11-21T03:32:43;4.63;;;2.33;;
22176;SDS011;11254;50.098;8.726;2023-11-21T03:35:13;4.97;;;2.17;;
22176;SDS011;11254;50.098;8.726;2023-11-21T03:37:42;5.65;;;2.20;;
22176;SDS011;11254;50.098;8.726;2023-11-21T03:40:11;11.98;;;2.53;;
22176;SDS011;11254;50.098;8.726;2023-11-21T03:42:40;4.15;;;1.85;;
22176;SDS011;11254;50.098;8.726;2023-11-21T03:45:10;4.15;;;1.50;;
22176;SDS011;11254;50.098;8.726;2023-11-21T03:47:40;3.78;;;1.70;;
22176;SDS011;11254;50.098;8.726;2023-11-21T03:50:08;3.05;;;1.50;;
22176;SDS011;11254;50.098;8.726;2023-11-21T03:52:37;3.90;;;1.98;;
22176;SDS011;11254;50.098;8.726;2023-11-21T03:55:06;5.05;;;1.80;;
22176;SDS011;11254;50.098;8.726;2023-11-21T03:57:34;3.83;;;1.70;;
22176;SDS011;11254;50.098;8.726;2023-11-21T04:00:03;3.03;;;1.55;;
22176;SDS011;11254;50.098;8.726;2023-11-21T04:02:39;3.65;;;1.45;;
22176;SDS011;11254;50.098;8.726;2023-11-21T04:05:07;3.30;;;1.30;;
22176;SDS011;11254;50.098;8.726;2023-11-21T04:07:36;2.30;;;1.10;;
22176;SDS011;11254;50.098;8.726;2023-11-21T04:10:07;3.85;;;1.33;;
22176;SDS011;11254;50.098;8.726;2023-11-21T04:12:36;3.03;;;1.30;;
22176;SDS011;11254;50.098;8.726;2023-11-21T04:15:05;3.78;;;1.30;;
22176;SDS011;11254;50.098;8.726;2023-11-21T04:17:35;2.60;;;1.30;;
22176;SDS011;11254;50.098;8.726;2023-11-21T04:20:06;4.15;;;1.30;;
22176;SDS011;11254;50.098;8.726;2023-11-21T04:22:36;4.00;;;1.35;;
22176;SDS011;11254;50.098;8.726;2023-11-21T04:25:08;2.90;;;1.40;;
22176;SDS011;11254;50.098;8.726;2023-11-21T04:27:38;3.33;;;1.40;;
22176;SDS011;11254;50.098;8.726;2023-11-21T04:30:07;3.75;;;1.65;;
22176;SDS011;11254;50.098;8.726;2023-11-21T04:32:36;6.63;;;2.28;;
22176;SDS011;11254;50.098;8.726;2023-11-21T04:35:07;6.00;;;2.30;;
22176;SDS011;11254;50.098;8.726;2023-11-21T04:37:36;3.67;;;1.90;;
22176;SDS011;11254;50.098;8.726;2023-11-21T04:40:05;5.47;;;2.10;;
22176;SDS011;11254;50.098;8.726;2023-11-21T04:42:34;6.03;;;1.38;;
22176;SDS011;11254;50.098;8.726;2023-11-21T04:45:04;4.38;;;1.65;;
22176;SDS011;11254;50.098;8.726;2023-11-21T04:47:36;4.47;;;1.80;;
22176;SDS011;11254;50.098;8.726;2023-11-21T04:50:06;3.78;;;1.73;;
22176;SDS011;11254;50.098;8.726;2023-11-21T04:52:35;3.50;;;1.88;;
22176;SDS011;11254;50.098;8.726;2023-11-21T04:55:04;3.85;;;1.83;;
22176;SDS011;11254;50.098;8.726;2023-11-21T04:57:36;4.30;;;2.08;;
22176;SDS011;11254;50.098;8.726;2023-11-21T05:00:05;6.35;;;2.50;;
22176;SDS011;11254;50.098;8.726;2023-11-21T05:02:34;8.18;;;2.63;;
22176;SDS011;11254;50.098;8.726;2023-11-21T05:05:07;5.28;;;3.00;;
22176;SDS011;11254;50.098;8.726;2023-11-21T05:07:37;4.85;;;3.10;;
22176;SDS011;11254;50.098;8.726;2023-11-21T05:10:06;7.70;;;3.65;;
22176;SDS011;11254;50.098;8.726;2023-11-21T05:12:37;5.85;;;3.30;;
22176;SDS011;11254;50.098;8.726;2023-11-21T05:15:06;6.03;;;3.10;;
22176;SDS011;11254;50.098;8.726;2023-11-21T05:17:36;6.53;;;3.88;;
22176;SDS011;11254;50.098;8.726;2023-11-21T05:20:08;5.82;;;3.10;;
22176;SDS011;11254;50.098;8.726;2023-11-21T05:22:38;6.18;;;3.30;;
22176;SDS011;11254;50.098;8.726;2023-11-21T05:25:10;5.20;;;3.00;;
22176;SDS011;11254;50.098;8.726;2023-11-21T05:27:38;7.80;;;3.40;;
22176;SDS011;11254;50.098;8.726;2023-11-21T05:30:07;6.72;;;3.40;;
22176;SDS011;11254;50.098;8.726;2023-11-21T05:32:42;5.03;;;2.85;;
22176;SDS011;11254;50.098;8.726;2023-11-21T05:35:17;8.15;;;3.17;;
22176;SDS011;11254;50.098;8.726;2023-11-21T05:37:46;6.95;;;3.50;;
22176;SDS011;11254;50.098;8.726;2023-11-21T05:40:20;7.18;;;3.42;;
22176;SDS011;11254;50.098;8.726;2023-11-21T05:42:50;7.65;;;4.07;;
22176;SDS011;11254;50.098;8.726;2023-11-21T05:45:19;10.35;;;5.47;;
22176;SDS011;11254;50.098;8.726;2023-11-21T05:47:52;8.88;;;5.05;;
22176;SDS011;11254;50.098;8.726;2023-11-21T05:50:23;11.05;;;5.03;;
22176;SDS011;11254;50.098;8.726;2023-11-21T05:52:52;10.32;;;5.28;;
22176;SDS011;11254;50.098;8.726;2023-11-21T05:55:22;13.02;;;6.05;;
22176;SDS011;11254;50.098;8.726;2023-11-21T05:57:52;10.88;;;5.63;;
22176;SDS011;11254;50.098;8.726;2023-11-21T06:00:21;13.43;;;6.28;;
22176;SDS011;11254;50.098;8.726;2023-11-21T06:02:52;14.43;;;6.97;;
22176;SDS011;11254;50.098;8.726;2023-11-21T06:05:24;16.92;;;8.07;;
22176;SDS011;11254;50.098;8.726;2023-11-21T06:07:54;18.05;;;8.63;;
22176;SDS011;11254;50.098;8.726;2023-11-21T06:10:26;19.48;;;8.45;;
22176;SDS011;11254;50.098;8.726;2023-11-21T06:12:55;21.75;;;9.25;;
22176;SDS011;11254;50.098;8.726;2023-11-21T06:15:30;22.42;;;8.93;;
22176;SDS011;11254;50.098;8.726;2023-11-21T06:17:59;18.38;;;8.52;;
22176;SDS011;11254;50.098;8.726;2023-11-21T06:20:29;18.85;;;8.77;;
22176;SDS011;11254;50.098;8.726;2023-11-21T06:22:58;21.70;;;8.93;;
22176;SDS011;11254;50.098;8.726;2023-11-21T06:25:30;21.63;;;9.95;;
22176;SDS011;11254;50.098;8.726;2023-11-21T06:28:00;20.38;;;9.13;;
22176;SDS011;11254;50.098;8.726;2023-11-21T06:30:29;22.23;;;9.43;;
22176;SDS011;11254;50.098;8.726;2023-11-21T06:32:58;22.02;;;9.90;;
22176;SDS011;11254;50.098;8.726;2023-11-21T06:35:27;19.38;;;9.55;;
22176;SDS011;11254;50.098;8.726;2023-11-21T06:38:01;22.35;;;10.32;;
22176;SDS011;11254;50.098;8.726;2023-11-21T06:40:30;26.00;;;11.10;;
22176;SDS011;11254;50.098;8.726;2023-11-21T06:43:09;20.52;;;9.43;;
22176;SDS011;11254;50.098;8.726;2023-11-21T06:45:41;25.08;;;9.90;;
22176;SDS011;11254;50.098;8.726;2023-11-21T06:48:18;23.20;;;9.57;;
22176;SDS011;11254;50.098;8.726;2023-11-21T06:50:47;17.88;;;8.13;;
22176;SDS011;11254;50.098;8.726;2023-11-21T06:53:25;16.42;;;7.22;;
22176;SDS011;11254;50.098;8.726;2023-11-21T06:55:55;13.13;;;6.53;;
22176;SDS011;11254;50.098;8.726;2023-11-21T06:58:24;19.08;;;6.43;;
22176;SDS011;11254;50.098;8.726;2023-11-21T07:00:53;13.52;;;6.20;;
22176;SDS011;11254;50.098;8.726;2023-11-21T07:03:22;11.48;;;5.93;;
22176;SDS011;11254;50.098;8.726;2023-11-21T07:05:52;10.45;;;5.50;;
22176;SDS011;11254;50.098;8.726;2023-11-21T07:08:22;11.40;;;5.55;;
22176;SDS011;11254;50.098;8.726;2023-11-21T07:10:53;12.82;;;5.75;;
22176;SDS011;11254;50.098;8.726;2023-11-21T07:13:22;10.60;;;5.65;;
22176;SDS011;11254;50.098;8.726;2023-11-21T07:15:51;10.40;;;5.38;;
22176;SDS011;11254;50.098;8.726;2023-11-21T07:18:21;10.57;;;5.43;;
22176;SDS011;11254;50.098;8.726;2023-11-21T07:20:49;10.55;;;5.28;;
22176;SDS011;11254;50.098;8.726;2023-11-21T07:23:19;12.68;;;5.82;;
22176;SDS011;11254;50.098;8.726;2023-11-21T07:25:49;11.80;;;5.35;;
22176;SDS011;11254;50.098;8.726;2023-11-21T07:28:20;14.05;;;6.20;;
22176;SDS011;11254;50.098;8.726;2023-11-21T07:30:49;15.40;;;5.60;;
22176;SDS011;11254;50.098;8.726;2023-11-21T07:33:18;13.27;;;6.05;;
22176;SDS011;11254;50.098;8.726;2023-11-21T07:35:48;11.85;;;5.80;;
22176;SDS011;11254;50.098;8.726;2023-11-21T07:38:16;12.70;;;5.88;;
22176;SDS011;11254;50.098;8.726;2023-11-21T07:40:45;12.18;;;5.85;;
22176;SDS011;11254;50.098;8.726;2023-11-21T07:43:14;10.80;;;5.88;;
22176;SDS011;11254;50.098;8.726;2023-11-21T07:45:47;14.63;;;5.32;;
22176;SDS011;11254;50.098;8.726;2023-11-21T07:48:16;10.10;;;5.00;;
22176;SDS011;11254;50.098;8.726;2023-11-21T07:50:45;9.75;;;4.70;;
22176;SDS011;11254;50.098;8.726;2023-11-21T07:53:14;11.10;;;5.18;;
22176;SDS011;11254;50.098;8.726;2023-11-21T07:55:43;11.85;;;5.45;;
22176;SDS011;11254;50.098;8.726;2023-11-21T07:58:14;12.30;;;5.20;;
22176;SDS011;11254;50.098;8.726;2023-11-21T08:03:54;9.68;;;4.90;;
22176;SDS011;11254;50.098;8.726;2023-11-21T08:06:30;12.65;;;5.18;;
22176;SDS011;11254;50.098;8.726;2023-11-21T08:08:59;10.77;;;5.13;;
22176;SDS011;11254;50.098;8.726;2023-11-21T08:11:28;9.27;;;5.03;;
22176;SDS011;11254;50.098;8.726;2023-11-21T08:13:59;11.45;;;5.95;;
22176;SDS011;11254;50.098;8.726;2023-11-21T08:16:27;13.20;;;6.05;;
22176;SDS011;11254;50.098;8.726;2023-11-21T08:18:58;13.07;;;6.35;;
22176;SDS011;11254;50.098;8.726;2023-11-21T08:21:26;12.50;;;6.00;;
22176;SDS011;11254;50.098;8.726;2023-11-21T08:23:56;12.45;;;6.38;;
22176;SDS011;11254;50.098;8.726;2023-11-21T08:26:24;13.07;;;5.93;;
22176;SDS011;11254;50.098;8.726;2023-11-21T08:28:54;13.23;;;6.05;;
22176;SDS011;11254;50.098;8.726;2023-11-21T08:31:23;17.38;;;7.30;;
22176;SDS011;11254;50.098;8.726;2023-11-21T08:33:52;13.68;;;6.53;;
22176;SDS011;11254;50.098;8.726;2023-11-21T08:36:24;14.07;;;6.32;;
22176;SDS011;11254;50.098;8.726;2023-11-21T08:38:55;14.30;;;6.85;;
22176;SDS011;11254;50.098;8.726;2023-11-21T08:47:36;14.75;;;6.75;;
22176;SDS011;11254;50.098;8.726;2023-11-21T08:50:05;12.45;;;6.47;;
22176;SDS011;11254;50.098;8.726;2023-11-21T08:52:36;13.07;;;6.78;;
22176;SDS011;11254;50.098;8.726;2023-11-21T08:55:05;16.02;;;7.07;;
22176;SDS011;11254;50.098;8.726;2023-11-21T08:57:35;16.13;;;7.07;;
22176;SDS011;11254;50.098;8.726;2023-11-21T09:00:05;18.73;;;7.85;;
22176;SDS011;11254;50.098;8.726;2023-11-21T09:02:41;15.50;;;7.75;;
22176;SDS011;11254;50.098;8.726;2023-11-21T09:05:11;14.68;;;6.88;;
22176;SDS011;11254;50.098;8.726;2023-11-21T09:07:44;17.17;;;7.15;;
22176;SDS011;11254;50.098;8.726;2023-11-21T09:10:17;15.00;;;7.00;;
22176;SDS011;11254;50.098;8.726;2023-11-21T09:12:58;14.48;;;6.55;;
22176;SDS011;11254;50.098;8.726;2023-11-21T09:16:04;14.13;;;6.40;;
22176;SDS011;11254;50.098;8.726;2023-11-21T12:56:33;13.13;;;5.75;;
22176;SDS011;11254;50.098;8.726;2023-11-21T12:59:02;12.95;;;6.32;;
22176;SDS011;11254;50.098;8.726;2023-11-21T13:01:34;11.38;;;5.50;;
22176;SDS011;11254;50.098;8.726;2023-11-21T13:04:08;15.38;;;5.85;;
22176;SDS011;11254;50.098;8.726;2023-11-21T13:06:38;12.90;;;5.10;;
22176;SDS011;11254;50.098;8.726;2023-11-21T13:09:08;9.18;;;4.88;;
22176;SDS011;11254;50.098;8.726;2023-11-21T13:11:39;10.38;;;5.20;;
22176;SDS011;11254;50.098;8.726;2023-11-21T13:14:18;10.90;;;5.60;;
22176;SDS011;11254;50.098;8.726;2023-11-21T13:16:50;9.90;;;5.32;;
22176;SDS011;11254;50.098;8.726;2023-11-21T13:19:19;11.85;;;5.30;;
22176;SDS011;11254;50.098;8.726;2023-11-21T13:21:48;9.15;;;4.88;;
22176;SDS011;11254;50.098;8.726;2023-11-21T13:24:17;11.57;;;5.13;;
22176;SDS011;11254;50.098;8.726;2023-11-21T13:26:47;10.95;;;4.95;;
22176;SDS011;11254;50.098;8.726;2023-11-21T13:29:16;12.23;;;5.43;;
22176;SDS011;11254;50.098;8.726;2023-11-21T13:31:44;11.18;;;4.53;;
22176;SDS011;11254;50.098;8.726;2023-11-21T13:34:17;13.27;;;5.00;;
22176;SDS011;11254;50.098;8.726;2023-11-21T13:36:54;10.57;;;4.57;;
22176;SDS011;11254;50.098;8.726;2023-11-21T13:39:27;10.75;;;4.60;;
22176;SDS011;11254;50.098;8.726;2023-11-21T13:42:00;9.80;;;4.68;;
22176;SDS011;11254;50.098;8.726;2023-11-21T13:44:30;10.55;;;5.18;;
22176;SDS011;11254;50.098;8.726;2023-11-21T13:47:04;13.07;;;4.88;;
22176;SDS011;11254;50.098;8.726;2023-11-21T13:49:35;12.57;;;4.65;;
22176;SDS011;11254;50.098;8.726;2023-11-21T13:52:07;9.65;;;4.43;;
22176;SDS011;11254;50.098;8.726;2023-11-21T13:54:42;13.30;;;5.10;;
22176;SDS011;11254;50.098;8.726;2023-11-21T13:57:12;11.05;;;4.63;;
22176;SDS011;11254;50.098;8.726;2023-11-21T13:59:41;11.10;;;4.38;;
22176;SDS011;11254;50.098;8.726;2023-11-21T14:02:13;12.38;;;4.70;;
22176;SDS011;11254;50.098;8.726;2023-11-21T14:04:50;13.38;;;4.32;;
22176;SDS011;11254;50.098;8.726;2023-11-21T14:07:24;9.60;;;4.28;;
22176;SDS011;11254;50.098;8.726;2023-11-21T14:10:09;11.68;;;5.10;;
22176;SDS011;11254;50.098;8.726;2023-11-21T14:12:42;9.77;;;5.10;;
22176;SDS011;11254;50.098;8.726;2023-11-21T14:15:12;11.43;;;5.13;;
22176;SDS011;11254;50.098;8.726;2023-11-21T14:17:45;11.63;;;5.03;;
22176;SDS011;11254;50.098;8.726;2023-11-21T14:20:14;14.13;;;5.40;;
22176;SDS011;11254;50.098;8.726;2023-11-21T14:22:44;15.55;;;5.72;;
22176;SDS011;11254;50.098;8.726;2023-11-21T14:25:13;13.40;;;6.03;;
22176;SDS011;11254;50.098;8.726;2023-11-21T14:27:43;13.50;;;6.25;;
22176;SDS011;11254;50.098;8.726;2023-11-21T14:30:12;12.75;;;6.03;;
22176;SDS011;11254;50.098;8.726;2023-11-21T14:32:44;12.55;;;6.03;;
22176;SDS011;11254;50.098;8.726;2023-11-21T14:35:15;17.45;;;6.30;;
22176;SDS011;11254;50.098;8.726;2023-11-21T14:37:44;12.30;;;5.97;;
22176;SDS011;11254;50.098;8.726;2023-11-21T14:40:16;15.52;;;6.47;;
22176;SDS011;11254;50.098;8.726;2023-11-21T14:42:49;13.50;;;5.90;;
22176;SDS011;11254;50.098;8.726;2023-11-21T14:45:19;15.55;;;6.43;;
22176;SDS011;11254;50.098;8.726;2023-11-21T14:47:49;14.75;;;7.65;;
22176;SDS011;11254;50.098;8.726;2023-11-21T14:50:25;16.75;;;7.18;;
22176;SDS011;11254;50.098;8.726;2023-11-21T14:53:08;17.83;;;7.57;;
22176;SDS011;11254;50.098;8.726;2023-11-21T14:55:39;16.20;;;7.22;;
22176;SDS011;11254;50.098;8.726;2023-11-21T14:58:22;18.98;;;6.65;;
22176;SDS011;11254;50.098;8.726;2023-11-21T15:00:56;12.93;;;6.20;;
22176;SDS011;11254;50.098;8.726;2023-11-21T15:11:52;16.17;;;6.20;;
22176;SDS011;11254;50.098;8.726;2023-11-21T15:15:10;12.15;;;6.07;;
22176;SDS011;11254;50.098;8.726;2023-11-21T15:18:44;15.18;;;6.32;;
22176;SDS011;11254;50.098;8.726;2023-11-21T15:21:32;13.25;;;6.28;;
22176;SDS011;11254;50.098;8.726;2023-11-21T15:24:01;13.23;;;5.95;;
22176;SDS011;11254;50.098;8.726;2023-11-21T15:26:33;14.80;;;6.28;;
22176;SDS011;11254;50.098;8.726;2023-11-21T15:29:02;14.68;;;6.25;;
22176;SDS011;11254;50.098;8.726;2023-11-21T15:31:32;15.93;;;6.30;;
22176;SDS011;11254;50.098;8.726;2023-11-21T15:34:02;13.32;;;6.13;;
22176;SDS011;11254;50.098;8.726;2023-11-21T15:36:32;13.27;;;6.13;;
22176;SDS011;11254;50.098;8.726;2023-11-21T15:39:01;14.10;;;6.20;;
22176;SDS011;11254;50.098;8.726;2023-11-21T15:41:30;14.77;;;6.80;;
22176;SDS011;11254;50.098;8.726;2023-11-21T15:43:59;15.70;;;6.53;;
22176;SDS011;11254;50.098;8.726;2023-11-21T15:46:27;12.05;;;6.68;;
22176;SDS011;11254;50.098;8.726;2023-11-21T15:48:59;13.82;;;7.35;;
22176;SDS011;11254;50.098;8.726;2023-11-21T15:51:31;15.32;;;6.95;;
22176;SDS011;11254;50.098;8.726;2023-11-21T15:54:01;16.23;;;7.07;;
22176;SDS011;11254;50.098;8.726;2023-11-21T15:56:30;14.10;;;6.82;;
22176;SDS011;11254;50.098;8.726;2023-11-21T15:59:03;15.10;;;6.95;;
22176;SDS011;11254;50.098;8.726;2023-11-21T16:01:35;13.80;;;6.35;;
22176;SDS011;11254;50.098;8.726;2023-11-21T16:04:17;19.65;;;7.07;;
